Time;durP1;ratioP1;P1;durP2;ratioP2;P2;SDS_P1;SDS_P2;PMS_P1;PMS_P2;Temp;Humidity;BMP_temperature;BMP_pressure;BME280_temperature;BME280_humidity;BME280_pressure;Samples;Min_cycle;Max_cycle;Signal;HPM_P1;HPM_P2
2023/11/02 00:00:43;;;;;;;6.60;1.10;;;7.80;99.90;;;;;;5044914;28;20533;-68
2023/11/02 00:03:26;;;;;;;6.03;0.70;;;7.70;99.90;;;;;;5041879;28;20856;-69
2023/11/02 00:06:22;;;;;;;7.03;1.20;;;7.60;99.90;;;;;;5044951;28;20492;-68
2023/11/02 00:09:29;;;;;;;6.60;1.10;;;7.60;99.90;;;;;;5043855;28;20468;-70
2023/11/02 00:12:01;;;;;;;6.23;1.00;;;7.50;99.90;;;;;;5040376;28;20445;-68
2023/11/02 00:14:36;;;;;;;5.90;1.00;;;7.40;99.90;;;;;;5043687;28;20526;-67
2023/11/02 00:17:33;;;;;;;7.30;1.23;;;7.40;99.90;;;;;;5036086;28;21067;-69
2023/11/02 00:20:03;;;;;;;6.90;1.23;;;7.40;99.90;;;;;;5038039;28;20459;-68
2023/11/02 00:22:31;;;;;;;7.10;1.20;;;7.30;99.90;;;;;;5043163;28;20487;-68
2023/11/02 00:25:02;;;;;;;6.07;1.10;;;7.30;99.90;;;;;;5046361;28;20502;-68
2023/11/02 00:27:33;;;;;;;8.43;1.17;;;7.30;99.90;;;;;;5043867;28;20842;-68
2023/11/02 00:30:03;;;;;;;6.80;1.50;;;7.00;99.90;;;;;;5043703;28;20440;-67
2023/11/02 00:32:31;;;;;;;6.77;1.17;;;7.00;99.90;;;;;;5036671;28;20442;-69
2023/11/02 00:35:00;;;;;;;6.60;1.40;;;7.10;99.90;;;;;;5038409;28;20944;-68
2023/11/02 00:37:28;;;;;;;6.00;1.20;;;7.30;99.90;;;;;;5033328;28;20457;-68
2023/11/02 00:39:56;;;;;;;6.70;1.30;;;7.30;99.90;;;;;;5041635;28;20445;-68
2023/11/02 00:42:24;;;;;;;8.80;1.37;;;7.20;99.90;;;;;;5042115;28;20444;-68
2023/11/02 00:44:52;;;;;;;6.53;0.83;;;7.20;99.90;;;;;;5032365;28;20483;-68
2023/11/02 00:47:21;;;;;;;6.10;1.20;;;7.20;99.90;;;;;;5038486;28;20454;-69
2023/11/02 00:49:49;;;;;;;7.10;1.03;;;7.30;99.90;;;;;;5035788;28;20519;-68
2023/11/02 00:52:19;;;;;;;6.23;1.20;;;7.30;99.90;;;;;;5036902;28;20897;-68
2023/11/02 00:54:56;;;;;;;6.20;1.20;;;7.20;99.90;;;;;;5037668;28;21257;-68
2023/11/02 00:57:28;;;;;;;6.07;0.93;;;7.30;99.90;;;;;;5038088;28;20502;-69
2023/11/02 00:59:58;;;;;;;7.90;1.60;;;7.30;99.90;;;;;;5033426;28;20467;-69
2023/11/02 01:02:34;;;;;;;6.40;1.30;;;7.30;99.90;;;;;;5038288;28;20453;-68
2023/11/02 01:05:04;;;;;;;6.67;0.90;;;7.20;99.90;;;;;;5036583;28;20566;-67
2023/11/02 01:07:33;;;;;;;6.20;1.23;;;7.20;99.90;;;;;;5041499;28;20441;-68
2023/11/02 01:10:04;;;;;;;8.13;1.10;;;7.40;99.90;;;;;;5041276;28;20449;-69
2023/11/02 01:12:35;;;;;;;6.67;0.90;;;7.50;99.90;;;;;;5037772;28;20586;-68
2023/11/02 01:15:06;;;;;;;6.40;1.20;;;7.60;99.90;;;;;;5040439;28;20460;-69
2023/11/02 01:17:38;;;;;;;6.70;1.30;;;7.70;99.90;;;;;;5033137;28;20976;-68
2023/11/02 01:20:09;;;;;;;6.33;1.07;;;7.70;99.90;;;;;;5037398;28;20441;-67
2023/11/02 01:22:52;;;;;;;6.23;1.10;;;7.70;99.90;;;;;;5042576;28;20452;-68
2023/11/02 01:25:22;;;;;;;7.00;1.37;;;7.70;99.90;;;;;;5044845;28;20494;-68
2023/11/02 01:27:51;;;;;;;6.10;0.90;;;7.50;99.90;;;;;;5061634;28;20480;-70
2023/11/02 01:31:08;;;;;;;6.60;1.10;;;7.40;99.90;;;;;;5053429;28;20974;-71
2023/11/02 01:34:05;;;;;;;6.30;1.30;;;7.30;99.90;;;;;;5045469;28;20467;-70
2023/11/02 01:36:42;;;;;;;6.10;0.90;;;7.10;99.90;;;;;;5044996;28;20494;-67
2023/11/02 01:39:46;;;;;;;7.50;1.20;;;7.00;99.90;;;;;;5048622;28;20555;-70
2023/11/02 01:42:24;;;;;;;6.57;1.43;;;7.10;99.90;;;;;;5047858;28;20807;-69
2023/11/02 01:45:03;;;;;;;6.90;1.30;;;7.10;99.90;;;;;;5049118;28;20474;-70
2023/11/02 01:47:42;;;;;;;6.60;1.40;;;7.10;99.90;;;;;;5046245;28;20459;-69
2023/11/02 01:50:19;;;;;;;6.10;1.10;;;7.30;99.90;;;;;;5047434;28;20475;-69
2023/11/02 01:53:13;;;;;;;6.90;1.20;;;7.40;99.90;;;;;;5040212;28;20517;-68
2023/11/02 01:55:56;;;;;;;19.67;2.03;;;7.50;99.90;;;;;;5041479;28;20471;-69
2023/11/02 01:58:32;;;;;;;6.80;0.90;;;7.60;99.90;;;;;;5048561;28;20464;-69
2023/11/02 02:01:10;;;;;;;8.83;1.00;;;7.60;99.90;;;;;;5048063;28;20459;-68
2023/11/02 02:03:49;;;;;;;6.10;1.13;;;7.70;99.90;;;;;;5047250;28;21089;-69
2023/11/02 02:06:26;;;;;;;6.00;0.90;;;7.70;99.90;;;;;;5047924;28;20466;-68
2023/11/02 02:09:03;;;;;;;7.07;1.83;;;7.70;99.90;;;;;;5046003;28;20887;-70
2023/11/02 02:11:43;;;;;;;7.33;1.17;;;7.80;99.90;;;;;;5047921;28;20449;-68
2023/11/02 02:14:18;;;;;;;6.27;1.10;;;7.90;99.90;;;;;;5046997;28;20862;-69
2023/11/02 02:16:55;;;;;;;6.90;1.40;;;8.00;99.90;;;;;;5047152;28;21102;-67
2023/11/02 02:19:45;;;;;;;6.63;1.23;;;8.00;99.90;;;;;;5048102;28;20532;-68
2023/11/02 02:22:22;;;;;;;8.57;1.40;;;8.20;99.90;;;;;;5047906;28;20451;-68
2023/11/02 02:24:56;;;;;;;6.00;0.93;;;8.30;99.90;;;;;;5041828;28;20820;-67
2023/11/02 02:28:04;;;;;;;6.47;1.00;;;8.30;99.90;;;;;;5055887;28;20508;-69
2023/11/02 02:31:13;;;;;;;5.77;0.90;;;8.30;99.90;;;;;;5042381;28;20982;-68
2023/11/02 02:34:38;;;;;;;7.53;1.03;;;8.20;99.90;;;;;;5046928;28;20875;-67
2023/11/02 02:37:15;;;;;;;10.53;1.53;;;8.20;99.90;;;;;;5046337;28;20477;-68
2023/11/02 02:39:45;;;;;;;6.77;1.10;;;8.30;99.90;;;;;;5047890;28;20917;-68
2023/11/02 02:42:15;;;;;;;7.03;1.47;;;8.50;99.90;;;;;;5043908;28;20494;-68
2023/11/02 02:44:48;;;;;;;6.50;1.20;;;8.50;99.90;;;;;;5047025;28;20491;-69
2023/11/02 02:47:20;;;;;;;8.17;1.70;;;8.50;99.90;;;;;;5041791;28;20442;-69
2023/11/02 02:49:51;;;;;;;7.53;1.17;;;8.50;99.90;;;;;;5046514;28;20446;-68
2023/11/02 02:52:22;;;;;;;5.93;1.20;;;8.50;99.90;;;;;;5046706;28;20950;-68
2023/11/02 02:54:54;;;;;;;7.83;1.83;;;8.50;99.90;;;;;;5045568;28;20471;-67
2023/11/02 02:57:28;;;;;;;7.17;1.40;;;8.50;99.90;;;;;;5045445;28;20994;-68
2023/11/02 03:00:00;;;;;;;7.13;1.10;;;8.40;99.90;;;;;;5047245;28;20507;-68
2023/11/02 03:02:32;;;;;;;8.90;1.53;;;8.40;99.90;;;;;;5046146;28;20533;-68
2023/11/02 03:05:00;;;;;;;9.27;1.40;;;8.60;99.90;;;;;;5046941;28;20465;-68
2023/11/02 03:07:32;;;;;;;7.93;1.97;;;8.50;99.90;;;;;;5047662;28;20445;-67
2023/11/02 03:10:02;;;;;;;7.43;1.50;;;8.60;99.90;;;;;;5047805;28;20649;-69
2023/11/02 03:12:34;;;;;;;6.90;1.70;;;8.60;99.90;;;;;;5059229;28;21007;-68
2023/11/02 03:15:06;;;;;;;11.43;1.77;;;8.50;99.90;;;;;;5047018;28;20956;-66
2023/11/02 03:17:55;;;;;;;7.53;2.00;;;8.50;99.90;;;;;;5047877;28;20497;-68
2023/11/02 03:20:25;;;;;;;9.53;2.10;;;8.40;99.90;;;;;;5048934;28;20991;-68
2023/11/02 03:23:00;;;;;;;7.40;2.43;;;8.50;99.90;;;;;;5050621;28;20455;-69
2023/11/02 03:25:39;;;;;;;7.87;1.70;;;8.60;99.90;;;;;;5050286;28;20463;-67
2023/11/02 03:28:12;;;;;;;7.67;1.83;;;8.60;99.90;;;;;;5044762;28;20541;-68
2023/11/02 03:30:49;;;;;;;7.20;2.00;;;8.90;99.90;;;;;;5043469;28;20463;-69
2023/11/02 03:33:27;;;;;;;7.13;1.77;;;8.90;99.90;;;;;;5044170;28;20542;-69
2023/11/02 03:36:02;;;;;;;7.07;2.10;;;8.70;99.90;;;;;;5050524;28;20466;-69
2023/11/02 03:38:48;;;;;;;7.50;1.90;;;8.80;99.90;;;;;;5050403;28;21036;-69
2023/11/02 03:41:24;;;;;;;7.27;2.10;;;8.80;99.90;;;;;;5050854;28;20831;-68
2023/11/02 03:44:01;;;;;;;7.53;1.83;;;8.90;99.90;;;;;;5047250;28;20482;-68
2023/11/02 03:46:42;;;;;;;7.87;2.00;;;8.80;99.90;;;;;;5049018;28;20592;-68
2023/11/02 03:49:23;;;;;;;7.27;1.87;;;8.90;99.90;;;;;;5050933;28;20452;-68
2023/11/02 03:52:06;;;;;;;7.23;1.50;;;9.00;99.90;;;;;;5050206;28;20453;-68
2023/11/02 03:55:04;;;;;;;6.50;1.20;;;9.00;99.90;;;;;;5049656;28;20480;-68
2023/11/02 03:57:36;;;;;;;8.13;1.43;;;9.00;99.90;;;;;;5049007;28;20502;-67
2023/11/02 04:00:10;;;;;;;6.30;1.30;;;9.00;99.90;;;;;;5050407;28;20534;-68
2023/11/02 04:02:44;;;;;;;8.87;1.40;;;9.00;99.90;;;;;;5048902;28;20494;-68
2023/11/02 04:05:16;;;;;;;7.43;1.23;;;8.90;99.90;;;;;;5049419;28;20532;-67
2023/11/02 04:07:59;;;;;;;6.40;1.27;;;8.80;99.90;;;;;;5050411;28;20891;-67
2023/11/02 04:10:31;;;;;;;7.60;1.50;;;8.90;99.90;;;;;;5050135;28;20454;-67
2023/11/02 04:13:14;;;;;;;7.60;1.80;;;8.80;99.90;;;;;;5049795;28;20447;-67
2023/11/02 04:15:43;;;;;;;7.10;1.10;;;8.90;99.90;;;;;;5049754;28;20464;-68
2023/11/02 04:18:11;;;;;;;6.77;1.50;;;8.80;99.90;;;;;;5048923;28;20487;-67
2023/11/02 04:20:39;;;;;;;6.80;1.60;;;8.80;99.90;;;;;;5050070;28;20439;-67
2023/11/02 04:23:08;;;;;;;6.83;1.17;;;8.80;99.90;;;;;;5049380;28;21043;-68
2023/11/02 04:25:37;;;;;;;6.63;1.13;;;8.80;99.90;;;;;;5049531;28;20471;-67
2023/11/02 04:28:05;;;;;;;6.20;1.20;;;8.80;99.90;;;;;;5049365;28;20467;-68
2023/11/02 04:30:33;;;;;;;8.00;1.23;;;8.80;99.90;;;;;;5049032;28;20456;-68
2023/11/02 04:33:01;;;;;;;6.83;1.23;;;8.70;99.90;;;;;;5038151;28;20483;-67
2023/11/02 04:35:29;;;;;;;13.33;1.40;;;8.80;99.90;;;;;;5048920;28;20545;-68
2023/11/02 04:38:06;;;;;;;7.83;1.50;;;8.80;99.90;;;;;;5049029;28;20474;-66
2023/11/02 04:40:36;;;;;;;9.30;1.60;;;8.80;99.90;;;;;;5049288;28;20525;-68
2023/11/02 04:43:05;;;;;;;6.63;1.10;;;8.80;99.90;;;;;;5049206;28;20451;-68
2023/11/02 04:45:34;;;;;;;5.97;1.20;;;8.70;99.90;;;;;;5048750;28;20493;-68
2023/11/02 04:48:03;;;;;;;6.47;1.40;;;8.60;99.90;;;;;;5049071;28;20448;-67
2023/11/02 04:50:31;;;;;;;6.30;1.37;;;8.70;99.90;;;;;;5049165;28;20505;-68
2023/11/02 04:53:01;;;;;;;6.57;1.23;;;8.70;99.90;;;;;;5049062;28;20472;-67
2023/11/02 04:55:29;;;;;;;8.83;1.60;;;8.70;99.90;;;;;;5048299;28;20558;-68
2023/11/02 04:57:58;;;;;;;8.40;1.40;;;8.80;99.90;;;;;;5049423;28;20520;-67
2023/11/02 05:00:25;;;;;;;7.07;1.83;;;8.80;99.90;;;;;;5049275;28;20446;-67
2023/11/02 05:02:53;;;;;;;6.40;1.53;;;8.90;99.90;;;;;;5047354;28;20454;-69
2023/11/02 05:05:21;;;;;;;7.10;1.23;;;8.90;99.90;;;;;;5048696;28;20554;-68
2023/11/02 05:07:49;;;;;;;7.20;1.90;;;8.80;99.90;;;;;;5049808;28;20446;-68
2023/11/02 05:10:17;;;;;;;6.60;1.60;;;8.90;99.90;;;;;;5049669;28;20447;-68
2023/11/02 05:12:45;;;;;;;8.33;1.73;;;8.90;99.90;;;;;;5049624;28;20533;-67
2023/11/02 05:15:15;;;;;;;6.57;1.40;;;8.90;99.90;;;;;;5049242;28;20537;-68
2023/11/02 05:17:43;;;;;;;6.40;1.40;;;8.80;99.90;;;;;;5035770;28;20498;-68
2023/11/02 05:20:11;;;;;;;8.37;1.87;;;8.80;99.90;;;;;;5044258;28;20455;-67
2023/11/02 05:22:40;;;;;;;6.53;1.50;;;8.90;99.90;;;;;;5045989;28;20814;-68
2023/11/02 05:25:08;;;;;;;8.73;1.97;;;9.00;99.90;;;;;;5047533;28;20477;-68
2023/11/02 05:27:36;;;;;;;6.17;1.20;;;9.00;99.90;;;;;;5048349;28;20542;-68
2023/11/02 05:30:06;;;;;;;7.43;1.30;;;9.00;99.90;;;;;;5048618;28;20443;-68
2023/11/02 05:32:38;;;;;;;6.67;1.63;;;9.00;99.90;;;;;;5047964;28;20862;-68
2023/11/02 05:35:09;;;;;;;9.50;1.40;;;9.10;99.90;;;;;;5040011;28;20570;-68
2023/11/02 05:37:37;;;;;;;7.47;1.40;;;9.00;99.90;;;;;;5048545;28;20449;-67
2023/11/02 05:40:06;;;;;;;7.73;1.60;;;9.00;99.90;;;;;;5056791;28;20459;-68
2023/11/02 05:42:34;;;;;;;6.80;1.50;;;9.10;99.90;;;;;;5042848;28;20605;-68
2023/11/02 05:45:03;;;;;;;5.80;1.30;;;9.20;99.90;;;;;;5047647;28;20474;-68
2023/11/02 05:47:31;;;;;;;6.37;1.30;;;9.20;99.90;;;;;;5048051;28;20511;-68
2023/11/02 05:50:00;;;;;;;7.23;1.83;;;9.20;99.90;;;;;;5047233;28;20455;-68
2023/11/02 05:52:28;;;;;;;9.47;1.20;;;9.30;99.90;;;;;;5047852;28;20474;-68
2023/11/02 05:54:56;;;;;;;9.57;2.57;;;9.30;99.90;;;;;;5045590;28;20526;-69
2023/11/02 05:57:24;;;;;;;7.17;1.50;;;9.40;99.90;;;;;;5036771;28;20955;-67
2023/11/02 05:59:52;;;;;;;7.97;1.30;;;9.40;99.90;;;;;;5047863;28;20493;-68
2023/11/02 06:02:20;;;;;;;6.47;1.13;;;9.40;99.90;;;;;;5048155;28;20478;-68
2023/11/02 06:04:48;;;;;;;6.90;1.10;;;9.50;99.90;;;;;;5047633;28;20509;-68
2023/11/02 06:07:17;;;;;;;7.50;1.50;;;9.50;99.90;;;;;;5047960;28;20514;-67
2023/11/02 06:09:45;;;;;;;6.30;1.30;;;9.50;99.90;;;;;;5047984;28;20536;-68
2023/11/02 06:12:13;;;;;;;6.60;1.47;;;9.50;99.90;;;;;;5042951;28;20870;-68
2023/11/02 06:14:41;;;;;;;7.10;1.60;;;9.50;99.90;;;;;;5047043;28;20475;-68
2023/11/02 06:17:09;;;;;;;8.10;1.47;;;9.50;99.90;;;;;;5048155;28;20534;-68
2023/11/02 06:19:37;;;;;;;6.70;1.50;;;9.60;99.90;;;;;;5047746;28;20549;-68
2023/11/02 06:22:05;;;;;;;7.80;1.20;;;9.60;99.90;;;;;;5045440;28;21026;-68
2023/11/02 06:24:37;;;;;;;7.77;1.57;;;9.60;99.90;;;;;;5045541;28;20471;-68
2023/11/02 06:27:05;;;;;;;7.40;1.37;;;9.50;99.90;;;;;;5047664;28;20467;-68
2023/11/02 06:29:34;;;;;;;7.83;1.63;;;9.40;99.90;;;;;;5046765;28;20504;-69
2023/11/02 06:32:02;;;;;;;6.47;1.30;;;9.30;99.90;;;;;;5047666;28;20456;-69
2023/11/02 06:34:35;;;;;;;6.43;1.57;;;9.30;99.90;;;;;;5047123;28;20471;-69
2023/11/02 06:37:03;;;;;;;8.13;1.70;;;9.20;99.90;;;;;;5040954;28;21000;-69
2023/11/02 06:39:31;;;;;;;8.10;1.77;;;9.00;99.90;;;;;;5047712;28;20571;-68
2023/11/02 06:42:00;;;;;;;6.27;1.40;;;9.00;99.90;;;;;;5042169;28;20570;-69
2023/11/02 06:44:28;;;;;;;7.73;2.20;;;9.00;99.90;;;;;;5046913;28;20549;-69
2023/11/02 06:46:56;;;;;;;8.10;2.10;;;8.90;99.90;;;;;;5047907;28;20454;-69
2023/11/02 06:49:25;;;;;;;8.90;2.80;;;8.90;99.90;;;;;;5046967;28;20454;-69
2023/11/02 06:51:53;;;;;;;8.27;3.10;;;8.90;99.90;;;;;;5047444;28;20462;-68
2023/11/02 06:54:21;;;;;;;9.13;2.70;;;9.00;99.90;;;;;;5048730;28;20448;-68
2023/11/02 06:56:49;;;;;;;9.03;2.97;;;9.00;99.90;;;;;;5043923;28;20963;-69
2023/11/02 06:59:18;;;;;;;9.27;2.77;;;9.10;99.90;;;;;;5051079;28;20528;-69
2023/11/02 07:01:50;;;;;;;7.40;2.50;;;9.10;99.90;;;;;;5051651;28;20472;-70
2023/11/02 07:04:18;;;;;;;8.33;2.43;;;9.00;99.90;;;;;;5049806;28;20436;-69
2023/11/02 07:06:46;;;;;;;7.97;2.70;;;8.90;99.90;;;;;;5050579;28;20457;-67
2023/11/02 07:09:15;;;;;;;7.60;2.30;;;8.90;99.90;;;;;;5046550;28;20443;-67
2023/11/02 07:11:43;;;;;;;9.77;2.27;;;8.90;99.90;;;;;;5045029;28;21009;-67
2023/11/02 07:14:11;;;;;;;8.43;2.23;;;8.90;99.90;;;;;;5050171;28;20450;-67
2023/11/02 07:16:40;;;;;;;8.90;2.70;;;9.00;99.90;;;;;;5050487;28;20466;-67
2023/11/02 07:19:08;;;;;;;10.33;2.53;;;9.00;99.90;;;;;;5051168;28;20485;-68
2023/11/02 07:21:36;;;;;;;8.57;2.60;;;9.10;99.90;;;;;;5046913;28;20939;-68
2023/11/02 07:24:04;;;;;;;11.30;5.20;;;9.10;99.90;;;;;;5048454;28;20451;-68
2023/11/02 07:26:33;;;;;;;10.77;4.40;;;9.10;99.90;;;;;;5049356;28;20458;-67
2023/11/02 07:29:01;;;;;;;8.40;3.50;;;9.20;99.90;;;;;;5048364;28;20474;-67
2023/11/02 07:31:29;;;;;;;8.10;2.70;;;9.20;99.90;;;;;;5046098;28;20480;-67
2023/11/02 07:33:58;;;;;;;11.30;3.97;;;9.30;99.90;;;;;;5049541;28;20498;-67
2023/11/02 07:36:27;;;;;;;9.27;2.70;;;9.40;99.90;;;;;;5050220;28;20564;-67
2023/11/02 07:38:55;;;;;;;9.00;2.80;;;9.30;99.90;;;;;;5037088;28;20987;-67
2023/11/02 07:41:23;;;;;;;8.37;2.57;;;9.30;99.90;;;;;;5050860;28;20949;-68
2023/11/02 07:43:50;;;;;;;8.93;2.27;;;9.30;99.90;;;;;;5057213;28;20474;-67
2023/11/02 07:46:19;;;;;;;8.13;2.13;;;9.30;99.90;;;;;;5047752;28;20468;-68
2023/11/02 07:48:47;;;;;;;9.60;2.23;;;9.40;99.90;;;;;;5049347;28;20440;-67
2023/11/02 07:51:16;;;;;;;8.60;2.23;;;9.40;99.90;;;;;;5046526;28;20570;-66
2023/11/02 07:53:44;;;;;;;8.73;2.20;;;9.40;99.90;;;;;;5047781;28;20497;-67
2023/11/02 07:56:12;;;;;;;9.30;2.37;;;9.30;99.90;;;;;;5048613;28;21119;-68
2023/11/02 07:58:42;;;;;;;8.70;2.40;;;9.40;99.90;;;;;;5050151;28;20444;-68
2023/11/02 08:01:11;;;;;;;7.27;1.97;;;9.40;99.90;;;;;;5050382;28;20489;-67
2023/11/02 08:03:39;;;;;;;7.70;2.00;;;9.40;99.90;;;;;;5048153;28;20456;-68
2023/11/02 08:06:09;;;;;;;7.23;2.03;;;9.40;99.90;;;;;;5041958;28;20583;-68
2023/11/02 08:08:38;;;;;;;8.67;2.10;;;9.40;99.90;;;;;;5041431;28;20831;-70
2023/11/02 08:11:06;;;;;;;6.60;1.50;;;9.50;99.90;;;;;;5048305;28;20490;-66
2023/11/02 08:13:34;;;;;;;8.53;2.00;;;9.50;99.90;;;;;;5047876;28;20950;-67
2023/11/02 08:16:03;;;;;;;8.00;2.27;;;9.50;99.90;;;;;;5048130;28;20478;-67
2023/11/02 08:18:31;;;;;;;8.03;2.33;;;9.50;99.90;;;;;;5046735;28;20480;-67
2023/11/02 08:21:07;;;;;;;9.07;3.10;;;9.50;99.90;;;;;;5048371;28;20490;-67
2023/11/02 08:23:35;;;;;;;7.33;1.73;;;9.50;99.90;;;;;;5048239;28;20469;-68
2023/11/02 08:26:06;;;;;;;8.00;1.87;;;9.50;99.90;;;;;;5044864;28;21184;-67
2023/11/02 08:28:33;;;;;;;9.17;1.70;;;9.60;99.90;;;;;;5048904;28;20925;-68
2023/11/02 08:31:01;;;;;;;8.20;2.10;;;9.60;99.90;;;;;;5049682;28;20440;-68
2023/11/02 08:33:29;;;;;;;7.50;2.43;;;9.70;99.90;;;;;;5049030;28;20557;-67
2023/11/02 08:35:58;;;;;;;14.40;3.53;;;9.70;99.90;;;;;;5049828;28;20469;-68
2023/11/02 08:38:26;;;;;;;8.90;2.80;;;9.70;99.90;;;;;;5055045;28;20456;-69
2023/11/02 08:40:54;;;;;;;10.63;2.60;;;9.70;99.90;;;;;;5036178;28;20532;-68
2023/11/02 08:43:23;;;;;;;8.97;2.70;;;9.70;99.90;;;;;;5046042;28;20447;-68
2023/11/02 08:45:51;;;;;;;8.90;2.83;;;9.70;99.90;;;;;;5049341;28;20547;-67
2023/11/02 08:48:20;;;;;;;10.93;3.10;;;9.80;99.90;;;;;;5049169;28;20554;-67
2023/11/02 08:50:48;;;;;;;9.77;3.23;;;9.80;99.90;;;;;;5049543;28;20532;-68
2023/11/02 08:53:16;;;;;;;8.97;3.90;;;9.70;99.90;;;;;;5050356;28;20463;-68
2023/11/02 08:55:45;;;;;;;11.37;4.00;;;9.70;99.90;;;;;;5044400;28;21087;-68
2023/11/02 08:58:13;;;;;;;11.80;4.30;;;9.70;99.90;;;;;;5041827;28;20619;-67
2023/11/02 09:00:42;;;;;;;8.60;3.43;;;9.70;99.90;;;;;;5048678;28;20544;-68
2023/11/02 09:03:10;;;;;;;9.07;3.70;;;9.70;99.90;;;;;;5048767;28;20453;-68
2023/11/02 09:05:39;;;;;;;10.63;2.70;;;9.70;99.90;;;;;;5041005;28;20481;-68
2023/11/02 09:08:07;;;;;;;10.47;3.23;;;9.70;99.90;;;;;;5045298;28;20443;-68
2023/11/02 09:10:35;;;;;;;10.00;3.57;;;9.70;99.90;;;;;;5049234;28;20500;-67
2023/11/02 09:13:03;;;;;;;9.63;2.90;;;9.70;99.90;;;;;;5042684;28;20524;-68
2023/11/02 09:15:31;;;;;;;7.57;2.50;;;9.70;99.90;;;;;;5045904;28;20482;-67
2023/11/02 09:18:00;;;;;;;9.00;2.73;;;9.70;99.90;;;;;;5048395;28;20549;-68
2023/11/02 09:20:28;;;;;;;8.90;2.60;;;9.80;99.90;;;;;;5048730;28;20583;-68
2023/11/02 09:22:57;;;;;;;9.00;2.90;;;10.00;99.90;;;;;;5044826;28;20472;-68
2023/11/02 09:25:25;;;;;;;10.87;2.60;;;10.00;99.90;;;;;;5045469;28;20529;-68
2023/11/02 09:27:53;;;;;;;10.60;2.30;;;10.10;99.90;;;;;;5048754;28;20459;-70
2023/11/02 09:30:21;;;;;;;8.93;2.30;;;10.10;99.90;;;;;;5048141;28;20465;-67
2023/11/02 09:32:49;;;;;;;7.60;2.10;;;10.10;99.90;;;;;;5043751;28;20475;-68
2023/11/02 09:35:19;;;;;;;8.37;2.37;;;10.00;99.90;;;;;;5047784;28;20533;-68
2023/11/02 09:37:47;;;;;;;9.23;2.20;;;10.00;99.90;;;;;;5048438;28;20478;-72
2023/11/02 09:40:18;;;;;;;9.03;2.20;;;10.00;99.90;;;;;;5048379;28;20487;-67
2023/11/02 09:42:46;;;;;;;7.93;1.83;;;9.90;99.90;;;;;;5045986;28;20478;-68
2023/11/02 09:45:15;;;;;;;8.43;2.50;;;9.90;99.90;;;;;;5042654;28;20558;-69
2023/11/02 09:47:45;;;;;;;9.90;2.60;;;9.90;99.90;;;;;;5047795;28;20593;-70
2023/11/02 09:50:14;;;;;;;8.30;2.20;;;10.00;99.90;;;;;;5047225;28;20454;-68
2023/11/02 09:52:43;;;;;;;8.20;2.83;;;9.90;99.90;;;;;;5046121;28;20553;-69
2023/11/02 09:55:13;;;;;;;7.90;1.93;;;10.00;99.90;;;;;;5045070;28;20915;-66
2023/11/02 09:57:42;;;;;;;8.90;2.53;;;10.00;99.90;;;;;;5038581;28;20464;-66
2023/11/02 10:00:11;;;;;;;9.00;2.20;;;10.00;99.90;;;;;;5045451;28;20486;-68
2023/11/02 10:02:40;;;;;;;7.60;2.17;;;10.10;99.90;;;;;;5047149;28;20447;-69
2023/11/02 10:05:12;;;;;;;6.90;1.93;;;10.10;99.90;;;;;;5045417;28;20464;-69
2023/11/02 10:07:39;;;;;;;7.80;2.10;;;10.10;99.90;;;;;;5046802;28;20479;-69
2023/11/02 10:10:10;;;;;;;8.00;2.40;;;10.20;99.90;;;;;;5047186;28;20517;-70
2023/11/02 10:12:40;;;;;;;6.80;1.33;;;10.30;99.90;;;;;;5045332;28;20456;-68
2023/11/02 10:15:11;;;;;;;7.63;1.70;;;10.40;99.90;;;;;;5041073;28;20475;-67
2023/11/02 10:17:40;;;;;;;7.80;2.10;;;10.40;99.90;;;;;;5046018;28;20490;-67
2023/11/02 10:20:09;;;;;;;6.73;1.50;;;10.40;99.90;;;;;;5036558;28;20710;-68
2023/11/02 10:22:37;;;;;;;6.47;1.67;;;10.50;99.90;;;;;;5040144;28;20528;-69
2023/11/02 10:25:06;;;;;;;7.73;1.60;;;10.60;99.90;;;;;;5041308;28;20529;-69
2023/11/02 10:27:38;;;;;;;10.67;2.07;;;10.70;99.90;;;;;;5045988;28;20876;-69
2023/11/02 10:30:11;;;;;;;6.20;1.03;;;10.80;99.90;;;;;;5043599;28;21143;-66
2023/11/02 10:32:39;;;;;;;6.53;1.20;;;10.80;99.90;;;;;;5044878;28;20463;-69
2023/11/02 10:35:08;;;;;;;6.93;1.30;;;10.80;99.90;;;;;;5048669;28;20475;-68
2023/11/02 10:37:37;;;;;;;6.10;0.87;;;10.90;99.90;;;;;;5050013;28;20958;-67
2023/11/02 10:40:06;;;;;;;6.23;1.00;;;10.90;99.90;;;;;;5048922;28;20443;-69
2023/11/02 10:42:38;;;;;;;6.40;1.07;;;10.90;99.90;;;;;;5046600;28;20514;-70
2023/11/02 10:45:10;;;;;;;6.20;1.03;;;11.00;99.90;;;;;;5048008;28;20502;-70
2023/11/02 10:47:41;;;;;;;6.57;0.90;;;11.10;99.90;;;;;;5047101;28;20999;-69
2023/11/02 10:50:13;;;;;;;6.10;1.10;;;11.10;99.90;;;;;;5047039;28;20453;-70
2023/11/02 10:52:47;;;;;;;6.37;0.97;;;11.20;99.90;;;;;;5045847;28;20873;-68
2023/11/02 10:55:22;;;;;;;8.73;0.83;;;11.20;99.90;;;;;;5048753;28;20464;-69
2023/11/02 10:57:53;;;;;;;6.40;1.07;;;11.20;99.90;;;;;;5044742;28;20452;-70
2023/11/02 11:00:23;;;;;;;6.90;0.80;;;11.20;99.90;;;;;;5040145;28;20543;-69
2023/11/02 11:02:52;;;;;;;5.90;0.70;;;11.20;99.90;;;;;;5047664;28;20999;-69
2023/11/02 11:05:21;;;;;;;6.63;0.80;;;11.20;99.90;;;;;;5041523;28;20460;-69
2023/11/02 11:08:01;;;;;;;7.27;0.80;;;11.10;99.90;;;;;;5049696;28;20868;-68
2023/11/02 11:10:30;;;;;;;6.30;0.90;;;11.10;99.90;;;;;;5048151;28;20456;-68
2023/11/02 11:13:01;;;;;;;7.70;1.10;;;11.10;99.90;;;;;;5052619;28;20891;-69
2023/11/02 11:15:29;;;;;;;6.50;0.90;;;11.10;99.90;;;;;;5045859;28;20555;-68
2023/11/02 11:17:58;;;;;;;6.03;0.80;;;11.10;99.90;;;;;;5047202;28;20988;-69
2023/11/02 11:20:27;;;;;;;6.17;1.00;;;11.20;99.90;;;;;;5048486;28;20446;-69
2023/11/02 11:22:55;;;;;;;8.10;1.00;;;11.30;99.90;;;;;;5050039;28;20483;-70
2023/11/02 11:25:23;;;;;;;7.43;0.90;;;11.30;99.90;;;;;;5049191;28;20496;-70
2023/11/02 11:27:52;;;;;;;6.27;0.70;;;11.30;99.90;;;;;;5045285;28;20505;-69
2023/11/02 11:30:38;;;;;;;7.00;0.87;;;11.30;99.90;;;;;;5050733;28;20751;-67
2023/11/02 11:33:54;;;;;;;6.97;1.50;;;11.30;99.90;;;;;;5041687;28;20454;-69
2023/11/02 11:36:24;;;;;;;5.87;0.87;;;11.20;99.90;;;;;;5001821;28;20464;-68
2023/11/02 11:38:53;;;;;;;6.30;0.90;;;11.20;99.90;;;;;;5004648;28;20457;-70
2023/11/02 11:41:44;;;;;;;5.70;0.60;;;11.20;99.90;;;;;;5019061;28;20485;-70
2023/11/02 11:44:19;;;;;;;6.23;0.53;;;11.10;99.90;;;;;;5046899;28;20841;-68
2023/11/02 11:46:52;;;;;;;6.60;0.70;;;11.00;99.90;;;;;;5047188;28;20456;-68
2023/11/02 11:49:49;;;;;;;6.43;0.90;;;11.00;99.90;;;;;;5048237;28;21139;-68
2023/11/02 11:52:28;;;;;;;5.57;0.57;;;11.00;99.90;;;;;;5046618;28;20486;-69
2023/11/02 11:54:56;;;;;;;6.27;0.83;;;11.00;99.90;;;;;;5046773;28;20472;-70
2023/11/02 11:57:53;;;;;;;8.37;0.70;;;11.00;99.90;;;;;;5050445;28;20440;-68
2023/11/02 12:00:24;;;;;;;6.10;0.73;;;11.00;99.90;;;;;;5047181;28;20512;-67
2023/11/02 12:02:56;;;;;;;6.10;0.60;;;11.00;99.90;;;;;;5043834;28;20484;-69
2023/11/02 12:05:53;;;;;;;6.10;0.67;;;11.00;99.90;;;;;;5043374;28;20913;-67
2023/11/02 12:08:22;;;;;;;7.67;0.70;;;11.00;99.90;;;;;;5041977;28;20540;-67
2023/11/02 12:10:55;;;;;;;7.00;0.80;;;11.00;99.90;;;;;;5045010;28;21157;-67
2023/11/02 12:13:24;;;;;;;6.50;0.83;;;10.90;99.90;;;;;;5046299;28;20451;-68
2023/11/02 12:15:54;;;;;;;6.30;0.80;;;11.00;99.90;;;;;;5046937;28;20462;-68
2023/11/02 12:18:31;;;;;;;6.50;0.87;;;10.90;99.90;;;;;;5046841;28;20465;-68
2023/11/02 12:21:04;;;;;;;5.80;0.60;;;11.00;99.90;;;;;;5044363;28;20444;-68
2023/11/02 12:23:33;;;;;;;6.07;0.60;;;10.90;99.90;;;;;;5047225;28;20482;-68
2023/11/02 12:26:04;;;;;;;6.17;0.87;;;10.90;99.90;;;;;;5049426;28;20880;-68
2023/11/02 12:28:43;;;;;;;6.90;0.70;;;10.80;99.90;;;;;;5049472;28;21037;-67
2023/11/02 12:31:26;;;;;;;5.70;0.50;;;10.80;99.90;;;;;;5049113;28;20494;-70
2023/11/02 12:33:56;;;;;;;6.47;0.80;;;10.80;99.90;;;;;;5048746;28;20446;-69
2023/11/02 12:36:24;;;;;;;6.93;0.90;;;10.80;99.90;;;;;;5046362;28;20471;-72
2023/11/02 12:38:55;;;;;;;6.70;0.70;;;10.80;99.90;;;;;;5047330;28;20517;-71
2023/11/02 12:41:24;;;;;;;5.73;0.80;;;10.70;99.90;;;;;;5045689;28;20455;-70
2023/11/02 12:44:00;;;;;;;7.80;0.83;;;10.80;99.90;;;;;;5047462;28;20531;-69
2023/11/02 12:46:29;;;;;;;6.73;1.20;;;10.80;99.90;;;;;;5049076;28;20480;-70
2023/11/02 12:49:15;;;;;;;6.23;0.80;;;10.80;99.90;;;;;;5049665;28;20448;-69
2023/11/02 12:51:44;;;;;;;8.13;0.93;;;10.80;99.90;;;;;;5043854;28;20444;-69
2023/11/02 12:54:14;;;;;;;6.10;0.80;;;10.70;99.90;;;;;;5042701;28;20486;-68
2023/11/02 12:56:44;;;;;;;6.07;1.00;;;10.70;99.90;;;;;;5043308;28;20476;-69
2023/11/02 12:59:15;;;;;;;6.93;1.17;;;10.70;99.90;;;;;;5043653;28;21052;-68
2023/11/02 13:01:53;;;;;;;6.67;0.83;;;10.70;99.90;;;;;;5043610;28;21267;-69
2023/11/02 13:04:24;;;;;;;6.10;0.70;;;10.70;99.90;;;;;;5040293;28;20820;-68
2023/11/02 13:06:54;;;;;;;5.57;0.77;;;10.70;99.90;;;;;;5043475;28;20452;-68
2023/11/02 13:09:26;;;;;;;9.00;1.20;;;10.70;99.90;;;;;;5044958;28;20439;-70
2023/11/02 13:11:56;;;;;;;17.60;1.53;;;10.70;99.90;;;;;;5044885;28;20441;-69
2023/11/02 13:14:25;;;;;;;5.80;0.50;;;10.60;99.90;;;;;;5044039;28;20527;-69
2023/11/02 13:16:55;;;;;;;6.63;0.87;;;10.60;99.90;;;;;;5045670;28;20447;-68
2023/11/02 13:19:25;;;;;;;6.43;1.10;;;10.70;99.90;;;;;;5048483;28;20822;-69